createdAt,value
2023-01-24T00:02:14.748Z,9.77
2023-01-24T00:07:37.687Z,10.07
2023-01-24T00:12:59.995Z,8.97
2023-01-24T00:18:22.234Z,9.40
2023-01-24T00:23:48.045Z,9.70
2023-01-24T00:29:10.490Z,10.40
2023-01-24T00:34:32.730Z,11.80
2023-01-24T00:39:55.026Z,9.50
2023-01-24T00:45:17.597Z,9.87
2023-01-24T00:50:40.710Z,9.67
2023-01-24T00:56:03.835Z,10.10
2023-01-24T01:01:26.474Z,11.17
2023-01-24T01:06:48.651Z,10.47
2023-01-24T01:12:11.297Z,9.97
2023-01-24T01:17:33.617Z,10.97
2023-01-24T01:22:56.039Z,10.53
2023-01-24T01:28:19.176Z,10.33
2023-01-24T01:33:41.468Z,11.27
2023-01-24T01:39:03.981Z,10.60
2023-01-24T01:44:39.101Z,12.10
2023-01-24T01:50:24.997Z,10.70
2023-01-24T01:55:52.803Z,11.87
2023-01-24T02:01:16.168Z,11.00
2023-01-24T02:07:07.667Z,10.30
2023-01-24T02:12:34.681Z,11.00
2023-01-24T02:17:57.331Z,11.23
2023-01-24T02:23:44.534Z,9.07
2023-01-24T02:29:10.499Z,11.87
2023-01-24T02:34:32.866Z,11.93
2023-01-24T02:40:08.260Z,12.00
2023-01-24T02:45:32.971Z,13.00
2023-01-24T02:51:33.870Z,10.77
2023-01-24T02:57:14.418Z,10.97
2023-01-24T03:02:36.705Z,11.90
2023-01-24T03:07:59.126Z,10.83
2023-01-24T03:13:40.897Z,11.97
2023-01-24T03:19:22.895Z,11.70
2023-01-24T03:25:03.683Z,10.57
2023-01-24T03:30:44.614Z,11.10
2023-01-24T03:36:07.614Z,10.13
2023-01-24T03:41:32.129Z,11.97
2023-01-24T03:46:54.964Z,10.43
2023-01-24T03:52:32.446Z,11.43
2023-01-24T03:57:59.742Z,11.03
2023-01-24T04:03:22.408Z,9.70
2023-01-24T04:08:45.343Z,9.67
2023-01-24T04:14:07.627Z,10.57
2023-01-24T04:19:33.410Z,9.10
2023-01-24T04:24:55.864Z,11.27
2023-01-24T04:30:21.747Z,9.97
2023-01-24T04:35:47.350Z,11.13
2023-01-24T04:41:13.365Z,10.90
2023-01-24T04:46:36.712Z,10.23
2023-01-24T04:51:59.320Z,10.13
2023-01-24T04:57:30.262Z,10.67
2023-01-24T05:02:55.266Z,9.37
2023-01-24T05:08:21.311Z,9.67
2023-01-24T05:13:43.827Z,10.13
2023-01-24T05:19:06.503Z,11.30
2023-01-24T05:24:30.525Z,10.17
2023-01-24T05:29:53.164Z,10.40
2023-01-24T05:35:15.650Z,10.53
2023-01-24T05:40:40.003Z,10.50
2023-01-24T05:46:05.548Z,12.27
2023-01-24T05:51:32.559Z,11.50
2023-01-24T05:56:55.531Z,10.60
2023-01-24T06:02:19.725Z,10.30
2023-01-24T06:07:42.162Z,11.47
2023-01-24T06:13:07.082Z,10.20
2023-01-24T06:18:29.879Z,11.10
2023-01-24T06:23:53.021Z,10.13
2023-01-24T06:29:17.743Z,10.97
2023-01-24T06:35:05.394Z,11.83
2023-01-24T06:40:28.125Z,11.20
2023-01-24T06:45:50.819Z,11.30
2023-01-24T06:51:15.392Z,10.63
2023-01-24T06:56:37.758Z,10.77
2023-01-24T07:02:00.224Z,12.27
2023-01-24T07:07:22.667Z,10.70
2023-01-24T07:12:45.185Z,12.53
2023-01-24T07:18:09.053Z,11.20
2023-01-24T07:23:33.678Z,11.77
2023-01-24T07:28:55.860Z,11.20
2023-01-24T07:34:19.268Z,13.03
2023-01-24T07:39:41.557Z,12.50
2023-01-24T07:45:04.353Z,13.07
2023-01-24T07:50:28.160Z,13.03
2023-01-24T07:56:01.478Z,12.00
2023-01-24T08:01:25.504Z,12.43
2023-01-24T08:07:06.634Z,13.10
2023-01-24T08:12:29.211Z,11.93
2023-01-24T08:17:51.321Z,11.53
2023-01-24T08:23:13.825Z,12.87
2023-01-24T08:28:36.700Z,12.13
2023-01-24T08:33:59.319Z,11.80
2023-01-24T08:39:28.741Z,12.50
2023-01-24T08:44:52.275Z,10.93
2023-01-24T08:50:17.289Z,12.53
2023-01-24T08:55:39.777Z,11.40
2023-01-24T09:01:10.146Z,11.33
2023-01-24T09:06:32.743Z,12.17
2023-01-24T09:11:54.965Z,10.80
2023-01-24T09:17:17.060Z,12.90
2023-01-24T09:22:39.556Z,12.07
2023-01-24T09:28:01.866Z,11.70
2023-01-24T09:33:24.521Z,12.37
2023-01-24T09:38:59.845Z,11.43
2023-01-24T09:44:29.043Z,12.10
2023-01-24T09:50:02.544Z,12.57
2023-01-24T09:55:30.935Z,13.40
2023-01-24T10:00:53.607Z,11.50
2023-01-24T10:06:22.200Z,12.87
2023-01-24T10:11:59.598Z,12.80
2023-01-24T10:17:59.556Z,13.13
2023-01-24T10:23:27.650Z,12.53
2023-01-24T10:28:56.100Z,13.67
2023-01-24T10:34:29.947Z,12.50
2023-01-24T10:39:52.451Z,14.50
2023-01-24T10:45:43.814Z,14.50
2023-01-24T10:51:17.085Z,13.13
2023-01-24T10:56:41.658Z,13.70
2023-01-24T11:02:21.952Z,13.10
2023-01-24T11:07:51.084Z,13.23
2023-01-24T11:13:26.249Z,14.73
2023-01-24T11:18:56.631Z,13.73
2023-01-24T11:24:20.594Z,14.53
2023-01-24T11:29:43.358Z,12.80
2023-01-24T11:35:25.713Z,14.87
2023-01-24T11:40:56.302Z,14.20
2023-01-24T11:46:53.555Z,13.63
2023-01-24T11:52:46.443Z,13.50
2023-01-24T11:58:39.529Z,13.30
2023-01-24T12:04:19.743Z,14.43
2023-01-24T12:09:46.430Z,14.40
2023-01-24T12:15:24.605Z,14.33
2023-01-24T12:20:59.980Z,14.03
2023-01-24T12:26:27.594Z,14.63
2023-01-24T12:31:53.198Z,13.47
2023-01-24T12:37:49.795Z,16.37
2023-01-24T12:43:25.669Z,14.70
2023-01-24T12:49:35.673Z,13.77
2023-01-24T12:55:01.471Z,14.77
2023-01-24T13:00:25.331Z,14.80
2023-01-24T13:05:56.655Z,14.50
2023-01-24T13:11:26.523Z,14.73
2023-01-24T13:17:05.753Z,14.57
2023-01-24T13:22:53.110Z,15.93
2023-01-24T13:28:42.400Z,16.40
2023-01-24T13:34:13.496Z,14.40
2023-01-24T13:39:40.169Z,14.40
2023-01-24T13:45:27.906Z,14.47
2023-01-24T13:51:16.036Z,15.73
2023-01-24T13:57:06.440Z,14.20
2023-01-24T14:02:32.548Z,14.33
2023-01-24T14:07:56.618Z,13.10
2023-01-24T14:13:43.487Z,13.90
2023-01-24T14:19:13.351Z,13.33
2023-01-24T14:24:56.111Z,14.07
2023-01-24T14:30:18.335Z,14.03
2023-01-24T14:35:57.847Z,14.63
2023-01-24T14:41:22.973Z,12.93
2023-01-24T14:46:53.034Z,15.00
2023-01-24T14:52:27.261Z,13.57
2023-01-24T14:57:49.677Z,13.97
2023-01-24T15:03:19.191Z,13.70
2023-01-24T15:08:42.184Z,16.33
2023-01-24T15:14:07.709Z,12.90
2023-01-24T15:19:33.283Z,14.57
2023-01-24T15:25:00.146Z,15.40
2023-01-24T15:30:28.334Z,15.27
2023-01-24T15:35:52.790Z,14.07
2023-01-24T15:41:21.787Z,15.17
2023-01-24T15:47:04.116Z,13.67
2023-01-24T15:52:26.525Z,12.83
2023-01-24T15:57:48.812Z,16.20
2023-01-24T16:03:11.097Z,14.43
2023-01-24T16:08:33.657Z,16.40
2023-01-24T16:13:56.929Z,14.80
2023-01-24T16:19:22.882Z,15.73
2023-01-24T16:24:45.396Z,16.67
2023-01-24T16:30:19.463Z,15.63
2023-01-24T16:35:42.372Z,15.27
2023-01-24T16:41:05.080Z,18.90
2023-01-24T16:46:27.318Z,14.70
2023-01-24T16:51:50.837Z,14.43
2023-01-24T16:57:13.408Z,14.40
2023-01-24T17:02:35.795Z,13.90
2023-01-24T17:07:58.912Z,13.60
2023-01-24T17:13:21.422Z,13.43
2023-01-24T17:18:46.032Z,14.83
2023-01-24T17:24:08.535Z,15.03
2023-01-24T17:29:31.110Z,15.07
2023-01-24T17:34:53.447Z,12.93
2023-01-24T17:40:15.968Z,13.13
2023-01-24T17:45:38.488Z,13.27
2023-01-24T17:51:07.623Z,14.07
2023-01-24T17:56:30.187Z,12.73
2023-01-24T18:01:52.705Z,13.70
2023-01-24T18:07:15.257Z,14.20
2023-01-24T18:12:37.884Z,12.17
2023-01-24T18:18:00.450Z,11.53
2023-01-24T18:23:22.980Z,12.10
2023-01-24T18:28:45.895Z,12.90
2023-01-24T18:34:11.097Z,13.60
2023-01-24T18:39:34.241Z,12.70
2023-01-24T18:44:59.450Z,13.07
2023-01-24T18:50:22.707Z,13.27
2023-01-24T18:55:45.135Z,13.33
2023-01-24T19:01:21.660Z,12.23
2023-01-24T19:06:45.039Z,13.93
2023-01-24T19:12:07.463Z,13.50
2023-01-24T19:17:30.041Z,13.80
2023-01-24T19:22:52.397Z,14.77
2023-01-24T19:28:14.819Z,12.93
2023-01-24T19:33:37.425Z,15.57
2023-01-24T19:39:01.584Z,14.50
2023-01-24T19:44:26.045Z,13.00
2023-01-24T19:49:49.056Z,13.47
2023-01-24T19:55:11.618Z,12.87
2023-01-24T20:00:34.833Z,13.07
2023-01-24T20:05:57.402Z,13.43
2023-01-24T20:11:20.882Z,14.13
2023-01-24T20:16:43.621Z,14.10
2023-01-24T20:22:07.028Z,12.87
2023-01-24T20:27:29.452Z,12.93
2023-01-24T20:32:52.065Z,13.60
2023-01-24T20:38:14.423Z,15.03
2023-01-24T20:43:38.103Z,15.17
2023-01-24T20:49:01.876Z,13.90
2023-01-24T20:54:24.629Z,14.30
2023-01-24T20:59:47.087Z,14.73
2023-01-24T21:05:09.946Z,14.17
2023-01-24T21:10:32.140Z,13.93
2023-01-24T21:15:54.496Z,14.10
2023-01-24T21:21:17.077Z,15.03
2023-01-24T21:26:39.489Z,15.17
2023-01-24T21:32:02.447Z,16.03
2023-01-24T21:37:28.325Z,13.67
2023-01-24T21:42:54.528Z,13.67
2023-01-24T21:48:36.582Z,14.13
2023-01-24T21:54:08.050Z,13.70
2023-01-24T21:59:32.581Z,12.47
2023-01-24T22:04:55.064Z,14.93
2023-01-24T22:10:17.498Z,13.17
2023-01-24T22:15:40.415Z,14.53
2023-01-24T22:21:04.842Z,13.07
2023-01-24T22:26:33.556Z,12.77
2023-01-24T22:31:55.994Z,11.17
2023-01-24T22:37:30.613Z,10.80
2023-01-24T22:42:57.581Z,10.87
2023-01-24T22:48:20.304Z,11.10
2023-01-24T22:53:42.750Z,10.17
2023-01-24T22:59:05.784Z,9.47
2023-01-24T23:04:28.199Z,9.47
2023-01-24T23:09:50.440Z,9.77
2023-01-24T23:15:32.530Z,9.70
2023-01-24T23:21:13.547Z,9.77
2023-01-24T23:26:36.179Z,9.00
2023-01-24T23:31:58.495Z,9.03
2023-01-24T23:37:22.134Z,9.33
2023-01-24T23:42:45.104Z,9.47
2023-01-24T23:48:07.654Z,9.97
2023-01-24T23:53:30.303Z,8.40
2023-01-24T23:58:53.154Z,9.57
